Terminal Aerodrome Forecast
Issued by NWS

Home | Current Version | Previous Version | Text Only | Print | Product List | Glossary On
Versions: 1 2 3 4 5 6 7 8 9 10 11 12 13 14 15 16
000
FTAK31 PAJN 012300
TAFAGY
TAF
PAGY 012326Z 0200/0224 22015G25KT P6SM SKC
     FM020600 VRB03KT P6SM SKC
     FM020900 00000KT P6SM SKC
     FM021800 21008KT P6SM SKC
     FM022100 21015KT P6SM SKC
      AMD LTD TO CLD VIS AND WIND=

USA.gov is the U.S. government's official web portal to all federal, state and local government web resources and services.